sensor_id;sensor_type;location;lat;lon;timestamp;P1;durP1;ratioP1;P2;durP2;ratioP2
20034;SDS011;10178;48.034;9.800;2023-05-07T00:01:14;3.50;;;2.53;;
20034;SDS011;10178;48.034;9.800;2023-05-07T00:03:39;2.40;;;2.20;;
20034;SDS011;10178;48.034;9.800;2023-05-07T00:06:05;3.00;;;2.17;;
20034;SDS011;10178;48.034;9.800;2023-05-07T00:08:31;2.65;;;2.45;;
20034;SDS011;10178;48.034;9.800;2023-05-07T00:10:56;2.40;;;2.20;;
20034;SDS011;10178;48.034;9.800;2023-05-07T00:13:22;2.40;;;2.13;;
20034;SDS011;10178;48.034;9.800;2023-05-07T00:15:47;2.95;;;2.28;;
20034;SDS011;10178;48.034;9.800;2023-05-07T00:18:13;5.25;;;2.58;;
20034;SDS011;10178;48.034;9.800;2023-05-07T00:20:39;2.22;;;2.00;;
20034;SDS011;10178;48.034;9.800;2023-05-07T00:23:04;2.40;;;2.20;;
20034;SDS011;10178;48.034;9.800;2023-05-07T00:25:30;3.13;;;2.20;;
20034;SDS011;10178;48.034;9.800;2023-05-07T00:27:55;2.75;;;1.90;;
20034;SDS011;10178;48.034;9.800;2023-05-07T00:30:22;3.22;;;2.00;;
20034;SDS011;10178;48.034;9.800;2023-05-07T00:32:48;2.75;;;2.30;;
20034;SDS011;10178;48.034;9.800;2023-05-07T00:35:15;3.92;;;2.17;;
20034;SDS011;10178;48.034;9.800;2023-05-07T00:37:41;2.25;;;2.10;;
20034;SDS011;10178;48.034;9.800;2023-05-07T00:40:06;2.60;;;2.40;;
20034;SDS011;10178;48.034;9.800;2023-05-07T00:42:33;2.00;;;1.90;;
20034;SDS011;10178;48.034;9.800;2023-05-07T00:44:58;4.15;;;2.42;;
20034;SDS011;10178;48.034;9.800;2023-05-07T00:58:34;2.17;;;1.98;;
20034;SDS011;10178;48.034;9.800;2023-05-07T01:01:06;1.90;;;1.77;;
20034;SDS011;10178;48.034;9.800;2023-05-07T01:40:36;3.38;;;2.20;;
20034;SDS011;10178;48.034;9.800;2023-05-07T01:43:21;2.53;;;2.33;;
20034;SDS011;10178;48.034;9.800;2023-05-07T01:46:26;2.72;;;2.42;;
20034;SDS011;10178;48.034;9.800;2023-05-07T01:49:34;2.83;;;2.45;;
20034;SDS011;10178;48.034;9.800;2023-05-07T01:52:26;2.28;;;2.05;;
20034;SDS011;10178;48.034;9.800;2023-05-07T01:55:05;2.28;;;2.08;;
20034;SDS011;10178;48.034;9.800;2023-05-07T01:57:53;2.35;;;2.22;;
20034;SDS011;10178;48.034;9.800;2023-05-07T02:00:51;2.35;;;1.75;;
20034;SDS011;10178;48.034;9.800;2023-05-07T03:06:27;2.05;;;1.95;;
20034;SDS011;10178;48.034;9.800;2023-05-07T03:09:15;2.38;;;2.17;;
20034;SDS011;10178;48.034;9.800;2023-05-07T03:11:55;2.90;;;2.10;;
20034;SDS011;10178;48.034;9.800;2023-05-07T03:14:45;2.13;;;2.03;;
20034;SDS011;10178;48.034;9.800;2023-05-07T03:17:24;3.30;;;2.30;;
20034;SDS011;10178;48.034;9.800;2023-05-07T03:20:00;2.30;;;2.10;;
20034;SDS011;10178;48.034;9.800;2023-05-07T05:39:18;1.95;;;1.80;;
20034;SDS011;10178;48.034;9.800;2023-05-07T05:41:51;1.90;;;1.80;;
20034;SDS011;10178;48.034;9.800;2023-05-07T05:44:19;2.33;;;1.85;;
20034;SDS011;10178;48.034;9.800;2023-05-07T05:47:03;2.40;;;2.20;;
20034;SDS011;10178;48.034;9.800;2023-05-07T05:49:35;3.75;;;3.45;;
20034;SDS011;10178;48.034;9.800;2023-05-07T05:52:01;5.00;;;3.88;;
20034;SDS011;10178;48.034;9.800;2023-05-07T05:54:27;4.05;;;3.65;;
20034;SDS011;10178;48.034;9.800;2023-05-07T05:56:53;3.83;;;3.28;;
20034;SDS011;10178;48.034;9.800;2023-05-07T05:59:19;2.65;;;2.42;;
20034;SDS011;10178;48.034;9.800;2023-05-07T06:01:47;2.70;;;2.50;;
20034;SDS011;10178;48.034;9.800;2023-05-07T06:07:24;5.05;;;2.75;;
20034;SDS011;10178;48.034;9.800;2023-05-07T06:10:20;3.00;;;2.80;;
20034;SDS011;10178;48.034;9.800;2023-05-07T06:12:51;4.63;;;3.67;;
20034;SDS011;10178;48.034;9.800;2023-05-07T06:18:55;2.72;;;2.53;;
20034;SDS011;10178;48.034;9.800;2023-05-07T06:22:02;2.38;;;2.28;;
20034;SDS011;10178;48.034;9.800;2023-05-07T06:24:56;2.33;;;2.13;;
20034;SDS011;10178;48.034;9.800;2023-05-07T06:27:37;2.50;;;2.33;;
20034;SDS011;10178;48.034;9.800;2023-05-07T06:30:08;2.65;;;2.45;;
20034;SDS011;10178;48.034;9.800;2023-05-07T06:33:11;2.42;;;2.22;;
20034;SDS011;10178;48.034;9.800;2023-05-07T06:36:15;2.72;;;2.35;;
20034;SDS011;10178;48.034;9.800;2023-05-07T06:39:36;4.78;;;2.30;;
20034;SDS011;10178;48.034;9.800;2023-05-07T06:42:31;2.67;;;2.45;;
20034;SDS011;10178;48.034;9.800;2023-05-07T06:45:24;2.78;;;2.58;;
20034;SDS011;10178;48.034;9.800;2023-05-07T06:48:22;2.50;;;2.30;;
20034;SDS011;10178;48.034;9.800;2023-05-07T06:50:47;2.80;;;2.58;;
20034;SDS011;10178;48.034;9.800;2023-05-07T06:53:13;3.05;;;2.08;;
20034;SDS011;10178;48.034;9.800;2023-05-07T06:55:38;3.90;;;2.30;;
20034;SDS011;10178;48.034;9.800;2023-05-07T06:58:04;3.10;;;2.33;;
20034;SDS011;10178;48.034;9.800;2023-05-07T07:00:31;3.65;;;2.10;;
20034;SDS011;10178;48.034;9.800;2023-05-07T07:02:56;3.78;;;2.83;;
20034;SDS011;10178;48.034;9.800;2023-05-07T07:05:22;5.55;;;2.50;;
20034;SDS011;10178;48.034;9.800;2023-05-07T07:07:48;3.70;;;3.05;;
20034;SDS011;10178;48.034;9.800;2023-05-07T07:10:19;3.28;;;3.00;;
20034;SDS011;10178;48.034;9.800;2023-05-07T07:12:45;4.05;;;3.40;;
20034;SDS011;10178;48.034;9.800;2023-05-07T07:15:11;2.80;;;2.60;;
20034;SDS011;10178;48.034;9.800;2023-05-07T07:17:36;2.60;;;2.40;;
20034;SDS011;10178;48.034;9.800;2023-05-07T07:20:02;2.83;;;2.58;;
20034;SDS011;10178;48.034;9.800;2023-05-07T07:22:28;3.03;;;2.75;;
20034;SDS011;10178;48.034;9.800;2023-05-07T07:24:54;4.75;;;3.00;;
20034;SDS011;10178;48.034;9.800;2023-05-07T07:27:20;3.03;;;2.72;;
20034;SDS011;10178;48.034;9.800;2023-05-07T07:29:45;2.90;;;2.63;;
20034;SDS011;10178;48.034;9.800;2023-05-07T07:32:11;4.03;;;3.05;;
20034;SDS011;10178;48.034;9.800;2023-05-07T07:34:36;5.82;;;2.80;;
20034;SDS011;10178;48.034;9.800;2023-05-07T07:37:02;3.53;;;2.53;;
20034;SDS011;10178;48.034;9.800;2023-05-07T07:39:31;6.20;;;2.72;;
20034;SDS011;10178;48.034;9.800;2023-05-07T07:41:57;3.95;;;2.50;;
20034;SDS011;10178;48.034;9.800;2023-05-07T07:44:23;3.17;;;2.80;;
20034;SDS011;10178;48.034;9.800;2023-05-07T07:46:49;3.55;;;3.20;;
20034;SDS011;10178;48.034;9.800;2023-05-07T07:49:15;2.67;;;2.47;;
20034;SDS011;10178;48.034;9.800;2023-05-07T07:51:41;2.70;;;2.50;;
20034;SDS011;10178;48.034;9.800;2023-05-07T07:54:07;4.45;;;2.95;;
20034;SDS011;10178;48.034;9.800;2023-05-07T07:56:33;3.10;;;2.90;;
20034;SDS011;10178;48.034;9.800;2023-05-07T07:58:59;3.00;;;2.80;;
20034;SDS011;10178;48.034;9.800;2023-05-07T08:01:25;3.22;;;2.92;;
20034;SDS011;10178;48.034;9.800;2023-05-07T08:03:51;3.75;;;2.75;;
20034;SDS011;10178;48.034;9.800;2023-05-07T08:06:16;5.05;;;2.90;;
20034;SDS011;10178;48.034;9.800;2023-05-07T08:08:42;2.63;;;2.40;;
20034;SDS011;10178;48.034;9.800;2023-05-07T08:11:08;4.03;;;2.65;;
20034;SDS011;10178;48.034;9.800;2023-05-07T08:13:36;2.88;;;2.42;;
20034;SDS011;10178;48.034;9.800;2023-05-07T08:16:03;2.67;;;2.45;;
20034;SDS011;10178;48.034;9.800;2023-05-07T08:18:29;3.13;;;2.83;;
20034;SDS011;10178;48.034;9.800;2023-05-07T08:20:54;3.25;;;2.80;;
20034;SDS011;10178;48.034;9.800;2023-05-07T08:23:20;3.70;;;3.05;;
20034;SDS011;10178;48.034;9.800;2023-05-07T08:25:46;3.30;;;3.00;;
20034;SDS011;10178;48.034;9.800;2023-05-07T08:28:12;6.90;;;3.60;;
20034;SDS011;10178;48.034;9.800;2023-05-07T08:30:37;3.17;;;2.90;;
20034;SDS011;10178;48.034;9.800;2023-05-07T08:33:03;2.95;;;2.63;;
20034;SDS011;10178;48.034;9.800;2023-05-07T08:35:29;4.47;;;2.80;;
20034;SDS011;10178;48.034;9.800;2023-05-07T08:37:54;3.45;;;2.75;;
20034;SDS011;10178;48.034;9.800;2023-05-07T08:40:24;4.45;;;3.28;;
20034;SDS011;10178;48.034;9.800;2023-05-07T08:42:52;6.03;;;3.95;;
20034;SDS011;10178;48.034;9.800;2023-05-07T08:45:18;3.08;;;2.78;;
20034;SDS011;10178;48.034;9.800;2023-05-07T08:47:53;5.40;;;3.58;;
20034;SDS011;10178;48.034;9.800;2023-05-07T08:50:23;4.63;;;3.53;;
20034;SDS011;10178;48.034;9.800;2023-05-07T08:52:49;3.50;;;2.90;;
20034;SDS011;10178;48.034;9.800;2023-05-07T08:55:15;4.57;;;2.80;;
20034;SDS011;10178;48.034;9.800;2023-05-07T08:57:40;3.17;;;2.42;;
20034;SDS011;10178;48.034;9.800;2023-05-07T09:00:06;4.82;;;3.00;;
20034;SDS011;10178;48.034;9.800;2023-05-07T09:02:33;4.05;;;3.13;;
20034;SDS011;10178;48.034;9.800;2023-05-07T09:05:01;5.47;;;2.97;;
20034;SDS011;10178;48.034;9.800;2023-05-07T09:07:27;5.85;;;4.03;;
20034;SDS011;10178;48.034;9.800;2023-05-07T09:09:52;4.40;;;2.92;;
20034;SDS011;10178;48.034;9.800;2023-05-07T09:12:20;4.75;;;3.70;;
20034;SDS011;10178;48.034;9.800;2023-05-07T09:14:46;2.95;;;2.60;;
20034;SDS011;10178;48.034;9.800;2023-05-07T09:17:12;4.05;;;3.22;;
20034;SDS011;10178;48.034;9.800;2023-05-07T09:19:38;4.65;;;2.80;;
20034;SDS011;10178;48.034;9.800;2023-05-07T09:22:04;4.28;;;2.63;;
20034;SDS011;10178;48.034;9.800;2023-05-07T09:24:32;2.78;;;2.50;;
20034;SDS011;10178;48.034;9.800;2023-05-07T09:27:02;2.83;;;2.33;;
20034;SDS011;10178;48.034;9.800;2023-05-07T09:29:29;7.15;;;4.30;;
20034;SDS011;10178;48.034;9.800;2023-05-07T09:32:00;5.32;;;3.83;;
20034;SDS011;10178;48.034;9.800;2023-05-07T09:34:26;2.92;;;2.47;;
20034;SDS011;10178;48.034;9.800;2023-05-07T09:36:53;3.75;;;2.45;;
20034;SDS011;10178;48.034;9.800;2023-05-07T09:39:19;2.47;;;2.28;;
20034;SDS011;10178;48.034;9.800;2023-05-07T09:41:45;7.03;;;4.10;;
20034;SDS011;10178;48.034;9.800;2023-05-07T09:44:12;6.03;;;2.60;;
20034;SDS011;10178;48.034;9.800;2023-05-07T09:46:39;5.00;;;2.70;;
20034;SDS011;10178;48.034;9.800;2023-05-07T09:49:07;3.80;;;3.03;;
20034;SDS011;10178;48.034;9.800;2023-05-07T09:51:45;6.05;;;3.67;;
20034;SDS011;10178;48.034;9.800;2023-05-07T09:54:14;5.40;;;3.00;;
20034;SDS011;10178;48.034;9.800;2023-05-07T09:56:40;2.97;;;2.67;;
20034;SDS011;10178;48.034;9.800;2023-05-07T09:59:14;2.75;;;2.50;;
20034;SDS011;10178;48.034;9.800;2023-05-07T10:01:41;4.68;;;4.28;;
20034;SDS011;10178;48.034;9.800;2023-05-07T10:04:08;4.20;;;3.88;;
20034;SDS011;10178;48.034;9.800;2023-05-07T10:06:35;3.88;;;2.75;;
20034;SDS011;10178;48.034;9.800;2023-05-07T10:09:02;3.33;;;2.63;;
20034;SDS011;10178;48.034;9.800;2023-05-07T10:11:30;3.70;;;3.40;;
20034;SDS011;10178;48.034;9.800;2023-05-07T10:13:58;13.43;;;4.60;;
20034;SDS011;10178;48.034;9.800;2023-05-07T10:16:27;4.90;;;2.72;;
20034;SDS011;10178;48.034;9.800;2023-05-07T10:19:02;3.33;;;2.63;;
20034;SDS011;10178;48.034;9.800;2023-05-07T10:21:28;3.47;;;2.60;;
20034;SDS011;10178;48.034;9.800;2023-05-07T10:23:59;3.10;;;2.65;;
20034;SDS011;10178;48.034;9.800;2023-05-07T10:26:31;3.13;;;2.63;;
20034;SDS011;10178;48.034;9.800;2023-05-07T10:28:59;3.28;;;2.70;;
20034;SDS011;10178;48.034;9.800;2023-05-07T10:33:59;2.90;;;2.70;;
20034;SDS011;10178;48.034;9.800;2023-05-07T10:36:31;3.90;;;3.45;;
20034;SDS011;10178;48.034;9.800;2023-05-07T10:38:59;3.03;;;2.83;;
20034;SDS011;10178;48.034;9.800;2023-05-07T10:41:25;11.07;;;9.10;;
20034;SDS011;10178;48.034;9.800;2023-05-07T10:43:50;3.67;;;3.20;;
20034;SDS011;10178;48.034;9.800;2023-05-07T10:49:19;3.50;;;2.53;;
20034;SDS011;10178;48.034;9.800;2023-05-07T10:51:38;3.30;;;2.30;;
20034;SDS011;10178;48.034;9.800;2023-05-07T10:56:44;3.00;;;2.80;;
20034;SDS011;10178;48.034;9.800;2023-05-07T11:01:56;2.90;;;2.70;;
20034;SDS011;10178;48.034;9.800;2023-05-07T11:04:23;2.72;;;2.35;;
20034;SDS011;10178;48.034;9.800;2023-05-07T11:15:14;2.70;;;2.05;;
20034;SDS011;10178;48.034;9.800;2023-05-07T11:17:58;2.17;;;1.90;;
20034;SDS011;10178;48.034;9.800;2023-05-07T11:20:44;2.45;;;2.25;;
20034;SDS011;10178;48.034;9.800;2023-05-07T11:26:08;2.20;;;2.00;;
20034;SDS011;10178;48.034;9.800;2023-05-07T11:28:36;1.83;;;1.60;;
20034;SDS011;10178;48.034;9.800;2023-05-07T11:31:03;4.50;;;2.45;;
20034;SDS011;10178;48.034;9.800;2023-05-07T11:33:32;3.97;;;1.70;;
20034;SDS011;10178;48.034;9.800;2023-05-07T11:36:00;1.77;;;1.67;;
20034;SDS011;10178;48.034;9.800;2023-05-07T11:38:28;2.03;;;1.83;;
20034;SDS011;10178;48.034;9.800;2023-05-07T11:40:55;5.13;;;2.28;;
20034;SDS011;10178;48.034;9.800;2023-05-07T11:43:22;2.50;;;1.98;;
20034;SDS011;10178;48.034;9.800;2023-05-07T11:45:48;1.67;;;1.58;;
20034;SDS011;10178;48.034;9.800;2023-05-07T11:48:16;3.13;;;1.90;;
20034;SDS011;10178;48.034;9.800;2023-05-07T11:50:52;2.40;;;1.52;;
20034;SDS011;10178;48.034;9.800;2023-05-07T11:53:18;3.28;;;1.58;;
20034;SDS011;10178;48.034;9.800;2023-05-07T11:55:45;2.38;;;1.95;;
20034;SDS011;10178;48.034;9.800;2023-05-07T11:58:11;2.58;;;1.80;;
20034;SDS011;10178;48.034;9.800;2023-05-07T12:00:38;2.13;;;1.75;;
20034;SDS011;10178;48.034;9.800;2023-05-07T12:03:06;2.88;;;1.90;;
20034;SDS011;10178;48.034;9.800;2023-05-07T12:05:32;2.80;;;1.80;;
20034;SDS011;10178;48.034;9.800;2023-05-07T12:07:58;2.08;;;1.85;;
20034;SDS011;10178;48.034;9.800;2023-05-07T12:10:24;2.67;;;2.10;;
20034;SDS011;10178;48.034;9.800;2023-05-07T12:12:50;2.10;;;1.55;;
20034;SDS011;10178;48.034;9.800;2023-05-07T12:15:22;2.92;;;2.13;;
20034;SDS011;10178;48.034;9.800;2023-05-07T12:17:47;1.73;;;1.50;;
20034;SDS011;10178;48.034;9.800;2023-05-07T12:20:14;1.80;;;1.63;;
20034;SDS011;10178;48.034;9.800;2023-05-07T12:22:40;1.80;;;1.70;;
20034;SDS011;10178;48.034;9.800;2023-05-07T12:25:06;2.03;;;1.92;;
20034;SDS011;10178;48.034;9.800;2023-05-07T12:27:32;1.85;;;1.75;;
20034;SDS011;10178;48.034;9.800;2023-05-07T12:30:01;1.70;;;1.60;;
20034;SDS011;10178;48.034;9.800;2023-05-07T12:32:27;2.47;;;1.58;;
20034;SDS011;10178;48.034;9.800;2023-05-07T12:34:53;3.10;;;1.88;;
20034;SDS011;10178;48.034;9.800;2023-05-07T12:37:27;2.42;;;1.80;;
20034;SDS011;10178;48.034;9.800;2023-05-07T12:40:09;2.40;;;2.10;;
20034;SDS011;10178;48.034;9.800;2023-05-07T12:42:36;1.95;;;1.73;;
20034;SDS011;10178;48.034;9.800;2023-05-07T12:45:16;1.92;;;1.55;;
20034;SDS011;10178;48.034;9.800;2023-05-07T12:47:45;2.92;;;1.77;;
20034;SDS011;10178;48.034;9.800;2023-05-07T12:50:15;1.60;;;1.50;;
20034;SDS011;10178;48.034;9.800;2023-05-07T12:52:41;3.95;;;2.08;;
20034;SDS011;10178;48.034;9.800;2023-05-07T12:55:09;2.97;;;2.00;;
20034;SDS011;10178;48.034;9.800;2023-05-07T12:57:37;2.85;;;1.85;;
20034;SDS011;10178;48.034;9.800;2023-05-07T13:00:07;2.15;;;1.67;;
20034;SDS011;10178;48.034;9.800;2023-05-07T13:02:36;2.22;;;2.03;;
20034;SDS011;10178;48.034;9.800;2023-05-07T13:05:03;2.80;;;2.25;;
20034;SDS011;10178;48.034;9.800;2023-05-07T13:07:29;2.58;;;1.88;;
20034;SDS011;10178;48.034;9.800;2023-05-07T13:09:54;2.38;;;2.05;;
20034;SDS011;10178;48.034;9.800;2023-05-07T13:12:20;1.88;;;1.65;;
20034;SDS011;10178;48.034;9.800;2023-05-07T13:14:46;1.90;;;1.80;;
20034;SDS011;10178;48.034;9.800;2023-05-07T13:17:11;1.88;;;1.77;;
20034;SDS011;10178;48.034;9.800;2023-05-07T13:19:37;2.33;;;2.13;;
20034;SDS011;10178;48.034;9.800;2023-05-07T13:22:03;1.80;;;1.70;;
20034;SDS011;10178;48.034;9.800;2023-05-07T13:24:29;2.83;;;1.98;;
20034;SDS011;10178;48.034;9.800;2023-05-07T13:26:54;2.50;;;1.92;;
20034;SDS011;10178;48.034;9.800;2023-05-07T13:29:20;2.53;;;1.90;;
20034;SDS011;10178;48.034;9.800;2023-05-07T13:31:53;2.40;;;1.80;;
20034;SDS011;10178;48.034;9.800;2023-05-07T13:34:19;2.72;;;2.00;;
20034;SDS011;10178;48.034;9.800;2023-05-07T13:36:45;2.38;;;1.83;;
20034;SDS011;10178;48.034;9.800;2023-05-07T13:39:11;2.22;;;2.03;;
20034;SDS011;10178;48.034;9.800;2023-05-07T13:41:36;2.55;;;2.35;;
20034;SDS011;10178;48.034;9.800;2023-05-07T13:44:02;2.72;;;2.20;;
20034;SDS011;10178;48.034;9.800;2023-05-07T13:46:28;2.50;;;2.00;;
20034;SDS011;10178;48.034;9.800;2023-05-07T13:48:54;4.57;;;2.38;;
20034;SDS011;10178;48.034;9.800;2023-05-07T13:51:20;3.65;;;2.05;;
20034;SDS011;10178;48.034;9.800;2023-05-07T13:53:46;3.40;;;2.08;;
20034;SDS011;10178;48.034;9.800;2023-05-07T13:56:12;4.05;;;1.95;;
20034;SDS011;10178;48.034;9.800;2023-05-07T13:58:39;2.05;;;1.80;;
20034;SDS011;10178;48.034;9.800;2023-05-07T14:01:05;4.97;;;2.10;;
20034;SDS011;10178;48.034;9.800;2023-05-07T14:03:30;2.70;;;1.90;;
20034;SDS011;10178;48.034;9.800;2023-05-07T14:05:57;3.08;;;2.70;;
20034;SDS011;10178;48.034;9.800;2023-05-07T14:08:24;2.30;;;1.70;;
20034;SDS011;10178;48.034;9.800;2023-05-07T14:10:50;4.90;;;1.95;;
20034;SDS011;10178;48.034;9.800;2023-05-07T14:13:16;2.20;;;2.00;;
20034;SDS011;10178;48.034;9.800;2023-05-07T14:15:42;2.85;;;2.13;;
20034;SDS011;10178;48.034;9.800;2023-05-07T14:18:11;2.00;;;1.90;;
20034;SDS011;10178;48.034;9.800;2023-05-07T14:20:37;4.32;;;2.28;;
20034;SDS011;10178;48.034;9.800;2023-05-07T14:23:03;2.38;;;2.13;;
20034;SDS011;10178;48.034;9.800;2023-05-07T14:25:29;2.92;;;2.25;;
20034;SDS011;10178;48.034;9.800;2023-05-07T14:27:56;8.77;;;2.05;;
20034;SDS011;10178;48.034;9.800;2023-05-07T14:30:22;2.65;;;2.40;;
20034;SDS011;10178;48.034;9.800;2023-05-07T14:32:49;4.53;;;2.28;;
20034;SDS011;10178;48.034;9.800;2023-05-07T14:35:15;2.65;;;2.45;;
20034;SDS011;10178;48.034;9.800;2023-05-07T14:37:44;3.45;;;2.58;;
20034;SDS011;10178;48.034;9.800;2023-05-07T14:40:10;2.33;;;2.03;;
20034;SDS011;10178;48.034;9.800;2023-05-07T14:42:45;3.05;;;2.22;;
20034;SDS011;10178;48.034;9.800;2023-05-07T14:49:24;5.57;;;2.13;;
20034;SDS011;10178;48.034;9.800;2023-05-07T14:56:15;4.38;;;2.00;;
20034;SDS011;10178;48.034;9.800;2023-05-07T14:59:07;2.35;;;1.85;;
20034;SDS011;10178;48.034;9.800;2023-05-07T15:01:36;3.10;;;1.85;;
20034;SDS011;10178;48.034;9.800;2023-05-07T15:04:03;1.65;;;1.40;;
20034;SDS011;10178;48.034;9.800;2023-05-07T15:06:29;2.30;;;1.40;;
20034;SDS011;10178;48.034;9.800;2023-05-07T15:08:56;4.30;;;1.50;;
20034;SDS011;10178;48.034;9.800;2023-05-07T15:11:21;4.68;;;1.40;;
20034;SDS011;10178;48.034;9.800;2023-05-07T15:13:47;3.42;;;1.38;;
20034;SDS011;10178;48.034;9.800;2023-05-07T15:16:13;4.57;;;1.60;;
20034;SDS011;10178;48.034;9.800;2023-05-07T15:18:38;3.95;;;1.40;;
20034;SDS011;10178;48.034;9.800;2023-05-07T15:21:04;4.63;;;1.40;;
20034;SDS011;10178;48.034;9.800;2023-05-07T15:23:33;6.03;;;1.67;;
20034;SDS011;10178;48.034;9.800;2023-05-07T15:26:01;2.97;;;1.52;;
20034;SDS011;10178;48.034;9.800;2023-05-07T15:28:36;5.57;;;1.60;;
20034;SDS011;10178;48.034;9.800;2023-05-07T15:31:09;5.00;;;1.42;;
20034;SDS011;10178;48.034;9.800;2023-05-07T18:49:57;2.40;;;1.40;;
20034;SDS011;10178;48.034;9.800;2023-05-07T18:52:22;4.70;;;1.48;;
20034;SDS011;10178;48.034;9.800;2023-05-07T18:54:50;1.80;;;1.10;;
20034;SDS011;10178;48.034;9.800;2023-05-07T18:57:15;1.73;;;1.00;;
20034;SDS011;10178;48.034;9.800;2023-05-07T18:59:41;1.88;;;1.50;;
20034;SDS011;10178;48.034;9.800;2023-05-07T19:02:07;1.50;;;1.27;;
20034;SDS011;10178;48.034;9.800;2023-05-07T19:04:32;1.63;;;1.45;;
20034;SDS011;10178;48.034;9.800;2023-05-07T19:06:58;2.00;;;1.80;;
20034;SDS011;10178;48.034;9.800;2023-05-07T19:09:23;3.17;;;2.50;;
20034;SDS011;10178;48.034;9.800;2023-05-07T19:11:49;2.45;;;1.80;;
20034;SDS011;10178;48.034;9.800;2023-05-07T19:14:15;3.55;;;2.08;;
20034;SDS011;10178;48.034;9.800;2023-05-07T19:16:40;3.95;;;2.85;;
20034;SDS011;10178;48.034;9.800;2023-05-07T19:19:06;2.60;;;2.22;;
20034;SDS011;10178;48.034;9.800;2023-05-07T19:21:31;4.63;;;2.70;;
20034;SDS011;10178;48.034;9.800;2023-05-07T19:23:57;2.50;;;2.30;;
20034;SDS011;10178;48.034;9.800;2023-05-07T19:26:41;5.15;;;2.67;;
20034;SDS011;10178;48.034;9.800;2023-05-07T19:29:07;2.45;;;2.20;;
20034;SDS011;10178;48.034;9.800;2023-05-07T19:31:32;4.05;;;2.58;;
20034;SDS011;10178;48.034;9.800;2023-05-07T19:33:58;4.03;;;1.65;;
20034;SDS011;10178;48.034;9.800;2023-05-07T19:36:24;3.60;;;2.53;;
20034;SDS011;10178;48.034;9.800;2023-05-07T19:38:50;1.83;;;1.50;;
20034;SDS011;10178;48.034;9.800;2023-05-07T19:41:18;3.05;;;1.42;;
20034;SDS011;10178;48.034;9.800;2023-05-07T19:43:44;1.60;;;1.50;;
20034;SDS011;10178;48.034;9.800;2023-05-07T19:46:10;1.95;;;1.60;;
20034;SDS011;10178;48.034;9.800;2023-05-07T19:48:35;2.70;;;1.30;;
20034;SDS011;10178;48.034;9.800;2023-05-07T19:51:01;4.53;;;1.48;;
20034;SDS011;10178;48.034;9.800;2023-05-07T19:53:27;2.03;;;1.35;;
20034;SDS011;10178;48.034;9.800;2023-05-07T19:56:07;1.75;;;1.48;;
20034;SDS011;10178;48.034;9.800;2023-05-07T19:58:34;3.08;;;1.20;;
20034;SDS011;10178;48.034;9.800;2023-05-07T20:01:00;2.35;;;1.30;;
20034;SDS011;10178;48.034;9.800;2023-05-07T20:03:27;1.30;;;1.20;;
20034;SDS011;10178;48.034;9.800;2023-05-07T20:05:53;2.25;;;1.20;;
20034;SDS011;10178;48.034;9.800;2023-05-07T20:08:19;1.40;;;1.30;;
20034;SDS011;10178;48.034;9.800;2023-05-07T20:10:44;1.73;;;1.20;;
20034;SDS011;10178;48.034;9.800;2023-05-07T20:13:10;2.00;;;1.55;;
20034;SDS011;10178;48.034;9.800;2023-05-07T20:15:36;1.38;;;1.13;;
20034;SDS011;10178;48.034;9.800;2023-05-07T20:18:02;2.88;;;1.38;;
20034;SDS011;10178;48.034;9.800;2023-05-07T20:20:28;0.98;;;0.98;;
20034;SDS011;10178;48.034;9.800;2023-05-07T20:22:54;1.60;;;1.50;;
20034;SDS011;10178;48.034;9.800;2023-05-07T20:25:20;1.17;;;1.08;;
20034;SDS011;10178;48.034;9.800;2023-05-07T20:27:45;2.08;;;1.33;;
20034;SDS011;10178;48.034;9.800;2023-05-07T20:30:11;1.40;;;1.30;;
20034;SDS011;10178;48.034;9.800;2023-05-07T20:32:37;1.30;;;1.20;;
20034;SDS011;10178;48.034;9.800;2023-05-07T20:35:03;2.00;;;1.33;;
20034;SDS011;10178;48.034;9.800;2023-05-07T20:37:32;1.90;;;1.27;;
20034;SDS011;10178;48.034;9.800;2023-05-07T20:39:59;1.48;;;1.15;;
20034;SDS011;10178;48.034;9.800;2023-05-07T20:42:25;1.17;;;1.13;;
20034;SDS011;10178;48.034;9.800;2023-05-07T20:44:51;1.35;;;1.25;;
20034;SDS011;10178;48.034;9.800;2023-05-07T20:49:52;1.70;;;1.60;;
20034;SDS011;10178;48.034;9.800;2023-05-07T20:52:18;2.17;;;1.50;;
20034;SDS011;10178;48.034;9.800;2023-05-07T20:54:44;1.38;;;1.27;;
20034;SDS011;10178;48.034;9.800;2023-05-07T20:57:11;1.65;;;1.55;;
20034;SDS011;10178;48.034;9.800;2023-05-07T20:59:37;1.42;;;1.33;;
20034;SDS011;10178;48.034;9.800;2023-05-07T21:02:04;1.40;;;1.20;;
20034;SDS011;10178;48.034;9.800;2023-05-07T21:04:31;2.30;;;2.00;;
20034;SDS011;10178;48.034;9.800;2023-05-07T21:06:56;3.50;;;1.77;;
20034;SDS011;10178;48.034;9.800;2023-05-07T21:09:23;1.77;;;1.25;;
20034;SDS011;10178;48.034;9.800;2023-05-07T21:11:49;3.13;;;1.55;;
20034;SDS011;10178;48.034;9.800;2023-05-07T21:14:14;3.15;;;1.30;;
20034;SDS011;10178;48.034;9.800;2023-05-07T21:16:40;2.25;;;1.33;;
20034;SDS011;10178;48.034;9.800;2023-05-07T21:19:06;2.55;;;1.30;;
20034;SDS011;10178;48.034;9.800;2023-05-07T21:21:32;2.95;;;1.17;;
20034;SDS011;10178;48.034;9.800;2023-05-07T21:23:58;1.25;;;1.15;;
20034;SDS011;10178;48.034;9.800;2023-05-07T21:26:23;2.35;;;1.73;;
20034;SDS011;10178;48.034;9.800;2023-05-07T21:28:49;1.33;;;1.23;;
20034;SDS011;10178;48.034;9.800;2023-05-07T21:31:15;1.35;;;1.30;;
20034;SDS011;10178;48.034;9.800;2023-05-07T21:33:41;2.83;;;1.38;;
20034;SDS011;10178;48.034;9.800;2023-05-07T21:36:08;1.52;;;1.20;;
20034;SDS011;10178;48.034;9.800;2023-05-07T21:38:35;2.80;;;1.50;;
20034;SDS011;10178;48.034;9.800;2023-05-07T21:41:01;2.53;;;1.38;;
20034;SDS011;10178;48.034;9.800;2023-05-07T21:43:27;1.38;;;1.27;;
20034;SDS011;10178;48.034;9.800;2023-05-07T21:45:52;1.30;;;1.20;;
20034;SDS011;10178;48.034;9.800;2023-05-07T21:48:18;1.40;;;1.30;;
20034;SDS011;10178;48.034;9.800;2023-05-07T21:50:46;1.33;;;1.20;;
20034;SDS011;10178;48.034;9.800;2023-05-07T21:53:12;1.60;;;1.23;;
20034;SDS011;10178;48.034;9.800;2023-05-07T21:55:38;1.45;;;1.10;;
20034;SDS011;10178;48.034;9.800;2023-05-07T21:58:03;3.17;;;1.88;;
20034;SDS011;10178;48.034;9.800;2023-05-07T22:00:29;3.63;;;1.92;;
20034;SDS011;10178;48.034;9.800;2023-05-07T22:02:55;1.73;;;1.45;;
20034;SDS011;10178;48.034;9.800;2023-05-07T22:05:21;2.08;;;1.58;;
20034;SDS011;10178;48.034;9.800;2023-05-07T22:07:46;1.17;;;1.15;;
20034;SDS011;10178;48.034;9.800;2023-05-07T22:10:12;1.40;;;1.30;;
20034;SDS011;10178;48.034;9.800;2023-05-07T22:12:38;1.38;;;1.33;;
20034;SDS011;10178;48.034;9.800;2023-05-07T22:15:03;1.23;;;1.20;;
20034;SDS011;10178;48.034;9.800;2023-05-07T22:17:29;1.95;;;1.67;;
20034;SDS011;10178;48.034;9.800;2023-05-07T22:19:55;2.15;;;2.00;;
20034;SDS011;10178;48.034;9.800;2023-05-07T22:22:21;3.30;;;1.27;;
20034;SDS011;10178;48.034;9.800;2023-05-07T22:24:46;2.55;;;1.35;;
20034;SDS011;10178;48.034;9.800;2023-05-07T22:27:12;1.50;;;1.40;;
20034;SDS011;10178;48.034;9.800;2023-05-07T22:29:38;5.07;;;1.40;;
20034;SDS011;10178;48.034;9.800;2023-05-07T22:32:03;1.60;;;1.50;;
20034;SDS011;10178;48.034;9.800;2023-05-07T22:34:29;1.45;;;1.20;;
20034;SDS011;10178;48.034;9.800;2023-05-07T22:36:55;1.90;;;1.80;;
20034;SDS011;10178;48.034;9.800;2023-05-07T22:39:20;2.50;;;1.60;;
20034;SDS011;10178;48.034;9.800;2023-05-07T22:41:46;3.15;;;2.72;;
20034;SDS011;10178;48.034;9.800;2023-05-07T22:44:12;4.22;;;2.88;;
20034;SDS011;10178;48.034;9.800;2023-05-07T22:46:37;3.92;;;3.13;;
20034;SDS011;10178;48.034;9.800;2023-05-07T22:49:03;4.40;;;2.35;;
20034;SDS011;10178;48.034;9.800;2023-05-07T22:51:29;5.00;;;1.70;;
20034;SDS011;10178;48.034;9.800;2023-05-07T22:53:54;2.30;;;1.65;;
20034;SDS011;10178;48.034;9.800;2023-05-07T22:56:20;4.30;;;2.50;;
20034;SDS011;10178;48.034;9.800;2023-05-07T22:58:48;1.42;;;1.27;;
20034;SDS011;10178;48.034;9.800;2023-05-07T23:01:14;1.48;;;1.35;;